Terminal Aerodrome Forecast
Issued by NWS

Home | Current Version | Previous Version | Text Only | Print | Product List | Glossary On
Versions: 1 2 3 4 5 6 7 8 9 10 11 12 13 14 15 16 17 18 19 20
000
FTUS43 KICT 222332
TAFCNU
TAF
KCNU 222332Z 2300/2324 14007KT P6SM SKC
     FM231700 16010KT P6SM SCT030
      TEMPO 2317/2321 BKN030
     FM232100 16010KT P6SM VCTS BKN040CB=

USA.gov is the U.S. government's official web portal to all federal, state and local government web resources and services.